createdAt,value
2018-06-02T00:01:39.774Z,16.40
2018-06-02T00:04:07.467Z,16.40
2018-06-02T00:06:34.482Z,16.40
2018-06-02T00:09:00.698Z,16.40
2018-06-02T00:11:27.925Z,16.40
2018-06-02T00:13:54.161Z,16.40
2018-06-02T00:16:20.367Z,16.40
2018-06-02T00:18:46.619Z,16.40
2018-06-02T00:21:12.822Z,16.40
2018-06-02T00:23:39.071Z,16.40
2018-06-02T00:26:09.017Z,16.40
2018-06-02T00:28:35.266Z,16.40
2018-06-02T00:31:02.202Z,16.40
2018-06-02T00:33:28.440Z,16.40
2018-06-02T00:35:55.378Z,16.40
2018-06-02T00:38:22.345Z,16.30
2018-06-02T00:40:48.588Z,16.30
2018-06-02T00:43:14.797Z,16.20
2018-06-02T00:45:41.012Z,16.20
2018-06-02T00:48:07.974Z,16.10
2018-06-02T00:50:34.234Z,16.10
2018-06-02T00:53:00.461Z,16.10
2018-06-02T00:55:26.702Z,16.10
2018-06-02T00:57:52.917Z,16.10
2018-06-02T01:00:19.130Z,16.10
2018-06-02T01:02:45.341Z,16.10
2018-06-02T01:05:11.567Z,16.10
2018-06-02T01:07:37.945Z,16.10
2018-06-02T01:10:04.194Z,16.10
2018-06-02T01:12:30.385Z,16.10
2018-06-02T01:14:56.606Z,16.10
2018-06-02T01:17:22.853Z,16.10
2018-06-02T01:19:49.814Z,16.10
2018-06-02T01:22:16.022Z,16.10
2018-06-02T01:24:42.305Z,16.10
2018-06-02T01:27:08.501Z,16.10
2018-06-02T01:29:35.465Z,16.10
2018-06-02T01:32:02.419Z,16.10
2018-06-02T01:34:29.391Z,16.20
2018-06-02T01:36:55.609Z,16.10
2018-06-02T01:39:21.834Z,16.20
2018-06-02T01:41:48.016Z,16.20
2018-06-02T01:44:14.243Z,16.20
2018-06-02T01:46:40.451Z,16.20
2018-06-02T01:49:06.698Z,16.20
2018-06-02T01:51:32.890Z,16.20
2018-06-02T01:53:59.185Z,16.30
2018-06-02T01:56:25.374Z,16.30
2018-06-02T01:58:51.593Z,16.30
2018-06-02T02:01:17.798Z,16.30
2018-06-02T02:03:44.039Z,16.30
2018-06-02T02:06:10.227Z,16.30
2018-06-02T02:08:36.440Z,16.30
2018-06-02T02:11:03.400Z,16.30
2018-06-02T02:13:29.657Z,16.30
2018-06-02T02:15:55.878Z,16.30
2018-06-02T02:18:22.094Z,16.30
2018-06-02T02:20:48.298Z,16.30
2018-06-02T02:23:14.575Z,16.30
2018-06-02T02:25:40.798Z,16.30
2018-06-02T02:28:07.770Z,16.30
2018-06-02T02:30:33.983Z,16.30
2018-06-02T02:33:00.187Z,16.30
2018-06-02T02:35:26.480Z,16.30
2018-06-02T02:37:52.701Z,16.30
2018-06-02T02:40:19.662Z,16.30
2018-06-02T02:42:45.911Z,16.30
2018-06-02T02:45:12.102Z,16.30
2018-06-02T02:47:39.054Z,16.40
2018-06-02T02:50:06.029Z,16.40
2018-06-02T02:52:32.275Z,16.40
2018-06-02T02:54:59.262Z,16.40
2018-06-02T02:57:26.218Z,16.40
2018-06-02T02:59:52.447Z,16.40
2018-06-02T03:02:18.723Z,16.40
2018-06-02T03:04:44.965Z,16.40
2018-06-02T03:07:11.196Z,16.40
2018-06-02T03:09:37.433Z,16.40
2018-06-02T03:12:04.410Z,16.40
2018-06-02T03:14:30.623Z,16.40
2018-06-02T03:16:57.597Z,16.40
2018-06-02T03:19:23.818Z,16.40
2018-06-02T03:21:50.774Z,16.40
2018-06-02T03:24:17.954Z,16.40
2018-06-02T03:26:44.870Z,16.40
2018-06-02T03:29:11.078Z,16.40
2018-06-02T03:31:37.341Z,16.40
2018-06-02T03:34:03.560Z,16.40
2018-06-02T03:36:29.752Z,16.40
2018-06-02T03:38:55.977Z,16.50
2018-06-02T03:41:22.934Z,16.50
2018-06-02T03:43:49.142Z,16.50
2018-06-02T03:46:16.085Z,16.50
2018-06-02T03:48:43.039Z,16.50
2018-06-02T03:51:10.008Z,16.50
2018-06-02T03:53:36.214Z,16.50
2018-06-02T03:56:03.200Z,16.50
2018-06-02T03:58:30.140Z,16.60
2018-06-02T04:00:56.329Z,16.50
2018-06-02T04:03:23.306Z,16.60
2018-06-02T04:05:49.530Z,16.50
2018-06-02T04:08:15.725Z,16.60
2018-06-02T04:10:42.696Z,16.60
2018-06-02T04:13:08.897Z,16.60
2018-06-02T04:15:35.834Z,16.70
2018-06-02T04:18:02.796Z,16.80
2018-06-02T04:20:29.093Z,16.70
2018-06-02T04:22:55.302Z,16.80
2018-06-02T04:25:21.503Z,16.90
2018-06-02T04:27:47.694Z,16.90
2018-06-02T04:30:14.664Z,17.00
2018-06-02T04:32:40.855Z,17.00
2018-06-02T04:35:07.798Z,17.10
2018-06-02T04:37:34.744Z,17.10
2018-06-02T04:40:01.714Z,17.10
2018-06-02T04:42:27.907Z,17.10
2018-06-02T04:44:54.118Z,17.10
2018-06-02T04:47:20.327Z,17.20
2018-06-02T04:49:47.265Z,17.20
2018-06-02T04:52:13.462Z,17.20
2018-06-02T04:54:39.664Z,17.20
2018-06-02T04:57:05.924Z,17.30
2018-06-02T04:59:32.138Z,17.30
2018-06-02T05:01:58.364Z,17.20
2018-06-02T05:04:25.396Z,17.30
2018-06-02T05:06:51.585Z,17.30
2018-06-02T05:09:17.788Z,17.30
2018-06-02T05:11:43.985Z,17.40
2018-06-02T05:14:10.939Z,17.30
2018-06-02T05:16:37.187Z,17.40
2018-06-02T05:19:03.435Z,17.40
2018-06-02T05:21:30.401Z,17.40
2018-06-02T05:23:56.590Z,17.40
2018-06-02T05:26:22.835Z,17.50
2018-06-02T05:28:49.151Z,17.50
2018-06-02T05:31:15.373Z,17.50
2018-06-02T05:33:41.610Z,17.60
2018-06-02T05:36:07.829Z,17.60
2018-06-02T05:38:34.018Z,17.60
2018-06-02T05:41:01.007Z,17.60
2018-06-02T05:43:27.222Z,17.60
2018-06-02T05:45:53.475Z,17.60
2018-06-02T05:48:20.394Z,17.60
2018-06-02T05:50:46.589Z,17.60
2018-06-02T05:53:14.362Z,17.60
2018-06-02T05:55:41.328Z,17.70
2018-06-02T05:58:07.578Z,17.70
2018-06-02T06:00:33.786Z,17.80
2018-06-02T06:02:59.986Z,17.90
2018-06-02T06:05:26.306Z,18.00
2018-06-02T06:07:53.249Z,18.00
2018-06-02T06:10:19.514Z,18.00
2018-06-02T06:12:45.704Z,18.00
2018-06-02T06:15:12.658Z,17.90
2018-06-02T06:17:39.583Z,18.00
2018-06-02T06:20:05.826Z,18.00
2018-06-02T06:22:32.777Z,18.20
2018-06-02T06:24:59.017Z,18.10
2018-06-02T06:27:25.229Z,18.30
2018-06-02T06:29:52.179Z,18.40
2018-06-02T06:32:19.219Z,18.40
2018-06-02T06:34:46.157Z,18.40
2018-06-02T06:37:12.378Z,18.40
2018-06-02T06:39:38.602Z,18.40
2018-06-02T06:42:04.949Z,18.40
2018-06-02T06:44:31.945Z,18.60
2018-06-02T06:46:58.097Z,18.50
2018-06-02T06:49:24.293Z,18.70
2018-06-02T06:51:50.482Z,18.70
2018-06-02T06:54:17.442Z,18.70
2018-06-02T06:56:43.676Z,18.70
2018-06-02T06:59:09.944Z,18.70
2018-06-02T07:01:36.162Z,18.70
2018-06-02T07:04:02.379Z,18.80
2018-06-02T07:06:28.569Z,19.00
2018-06-02T07:08:54.884Z,19.30
2018-06-02T07:11:21.056Z,19.50
2018-06-02T07:13:47.307Z,19.70
2018-06-02T07:16:13.579Z,19.70
2018-06-02T07:18:40.519Z,19.70
2018-06-02T07:21:07.471Z,19.60
2018-06-02T07:23:33.663Z,19.60
2018-06-02T07:25:59.882Z,19.60
2018-06-02T07:28:26.085Z,19.60
2018-06-02T07:30:52.313Z,19.60
2018-06-02T07:33:18.520Z,19.60
2018-06-02T07:35:44.742Z,19.50
2018-06-02T07:38:11.055Z,19.40
2018-06-02T07:40:38.094Z,19.20
2018-06-02T07:43:05.055Z,19.10
2018-06-02T07:45:31.999Z,19.10
2018-06-02T07:47:59.001Z,19.10
2018-06-02T07:50:25.221Z,19.00
2018-06-02T07:52:51.449Z,19.10
2018-06-02T07:55:21.201Z,19.10
2018-06-02T07:57:48.219Z,19.10
2018-06-02T08:00:15.187Z,18.90
2018-06-02T08:02:42.143Z,18.80
2018-06-02T08:05:09.081Z,18.70
2018-06-02T08:07:45.549Z,18.50
2018-06-02T08:10:11.835Z,18.50
2018-06-02T08:12:38.054Z,18.40
2018-06-02T08:15:04.256Z,18.40
2018-06-02T08:17:30.468Z,18.20
2018-06-02T08:19:56.766Z,18.20
2018-06-02T08:22:23.046Z,18.20
2018-06-02T08:24:49.253Z,18.20
2018-06-02T08:27:15.483Z,18.10
2018-06-02T08:29:41.684Z,18.10
2018-06-02T08:32:07.924Z,18.10
2018-06-02T08:34:34.902Z,18.10
2018-06-02T08:37:01.140Z,18.10
2018-06-02T08:39:27.354Z,18.20
2018-06-02T08:41:53.563Z,18.50
2018-06-02T08:44:19.798Z,18.80
2018-06-02T08:46:46.014Z,19.40
2018-06-02T08:49:13.003Z,21.30
2018-06-02T08:51:39.207Z,21.30
2018-06-02T08:54:05.421Z,21.60
2018-06-02T08:56:31.637Z,21.70
2018-06-02T08:58:57.870Z,21.50
2018-06-02T09:01:24.863Z,21.10
2018-06-02T09:03:51.103Z,21.10
2018-06-02T09:06:17.314Z,20.80
2018-06-02T09:08:43.558Z,20.80
2018-06-02T09:11:09.793Z,20.80
2018-06-02T09:13:36.032Z,20.60
2018-06-02T09:16:02.301Z,20.60
2018-06-02T09:18:28.547Z,20.40
2018-06-02T09:20:54.784Z,20.30
2018-06-02T09:23:21.055Z,20.20
2018-06-02T09:25:48.030Z,20.20
2018-06-02T09:28:14.251Z,20.20
2018-06-02T09:30:40.473Z,20.30
2018-06-02T09:33:06.715Z,20.50
2018-06-02T09:35:32.934Z,20.70
2018-06-02T09:37:59.244Z,21.20
2018-06-02T09:40:25.471Z,21.70
2018-06-02T09:42:52.407Z,22.60
2018-06-02T09:45:19.411Z,23.20
2018-06-02T09:47:45.669Z,23.20
2018-06-02T09:50:11.998Z,23.50
2018-06-02T09:52:38.202Z,23.60
2018-06-02T09:55:05.168Z,23.60
2018-06-02T09:57:31.457Z,23.50
2018-06-02T09:59:57.681Z,23.60
2018-06-02T10:02:23.913Z,23.60
2018-06-02T10:04:57.544Z,23.60
2018-06-02T10:07:23.839Z,23.60
2018-06-02T10:09:50.143Z,23.40
2018-06-02T10:12:16.360Z,22.80
2018-06-02T10:14:43.323Z,22.40
2018-06-02T10:17:09.532Z,22.40
2018-06-02T10:19:36.518Z,23.00
2018-06-02T10:22:02.786Z,23.00
2018-06-02T10:24:29.082Z,23.10
2018-06-02T10:26:55.316Z,23.20
2018-06-02T10:29:21.599Z,23.50
2018-06-02T10:31:48.643Z,23.50
2018-06-02T10:34:15.662Z,23.40
2018-06-02T10:36:41.930Z,23.40
2018-06-02T10:39:08.144Z,23.20
2018-06-02T10:41:35.214Z,22.70
2018-06-02T10:44:01.422Z,22.70
2018-06-02T10:46:28.429Z,22.50
2018-06-02T10:48:54.686Z,22.40
2018-06-02T10:51:21.634Z,22.20
2018-06-02T10:53:53.681Z,22.10
2018-06-02T10:56:19.926Z,22.10
2018-06-02T10:58:47.614Z,22.20
2018-06-02T11:01:14.615Z,22.10
2018-06-02T11:03:40.895Z,22.20
2018-06-02T11:06:08.201Z,22.40
2018-06-02T11:08:34.422Z,22.40
2018-06-02T11:11:00.612Z,22.50
2018-06-02T11:13:26.907Z,22.50
2018-06-02T11:15:53.868Z,22.60
2018-06-02T11:18:20.080Z,22.60
2018-06-02T11:20:47.042Z,22.40
2018-06-02T11:23:13.295Z,22.40
2018-06-02T11:25:39.533Z,22.20
2018-06-02T11:28:05.773Z,21.90
2018-06-02T11:30:32.083Z,21.70
2018-06-02T11:32:58.279Z,21.60
2018-06-02T11:35:24.579Z,21.60
2018-06-02T11:37:50.891Z,21.60
2018-06-02T11:40:17.085Z,21.60
2018-06-02T11:42:43.323Z,21.60
2018-06-02T11:45:09.549Z,21.70
2018-06-02T11:47:35.817Z,21.80
2018-06-02T11:50:02.123Z,21.90
2018-06-02T11:52:29.103Z,22.10
2018-06-02T11:54:56.098Z,22.20
2018-06-02T11:57:22.304Z,22.20
2018-06-02T11:59:48.579Z,22.20
2018-06-02T12:02:14.777Z,22.20
2018-06-02T12:04:41.002Z,22.00
2018-06-02T12:07:07.226Z,21.90
2018-06-02T12:09:33.449Z,22.00
2018-06-02T12:11:59.667Z,22.20
2018-06-02T12:14:25.894Z,22.30
2018-06-02T12:16:52.145Z,22.30
2018-06-02T12:19:18.350Z,22.40
2018-06-02T12:21:44.576Z,22.50
2018-06-02T12:24:10.822Z,22.70
2018-06-02T12:26:37.059Z,22.90
2018-06-02T12:29:03.405Z,23.00
2018-06-02T12:34:02.460Z,23.40
2018-06-02T12:36:28.650Z,23.40
2018-06-02T12:38:54.864Z,23.60
2018-06-02T12:41:21.055Z,23.80
2018-06-02T12:43:47.281Z,23.90
2018-06-02T12:46:15.628Z,23.80
2018-06-02T12:48:42.607Z,23.30
2018-06-02T12:51:08.833Z,23.30
2018-06-02T12:53:35.069Z,23.30
2018-06-02T12:56:01.287Z,23.30
2018-06-02T12:58:27.490Z,23.50
2018-06-02T13:00:55.245Z,23.50
2018-06-02T13:03:22.231Z,23.60
2018-06-02T13:05:48.474Z,23.60
2018-06-02T13:08:14.692Z,23.60
2018-06-02T13:10:40.911Z,23.20
2018-06-02T13:13:07.183Z,23.10
2018-06-02T13:15:33.416Z,23.10
2018-06-02T13:17:59.686Z,23.40
2018-06-02T13:20:25.903Z,23.80
2018-06-02T13:22:52.137Z,23.80
2018-06-02T13:25:18.341Z,23.80
2018-06-02T13:27:45.440Z,24.20
2018-06-02T13:30:11.912Z,24.20
2018-06-02T13:32:38.145Z,24.40
2018-06-02T13:35:05.128Z,24.50
2018-06-02T13:37:31.321Z,24.50
2018-06-02T13:39:58.287Z,24.80
2018-06-02T13:42:24.493Z,24.80
2018-06-02T13:44:51.468Z,24.40
2018-06-02T13:47:17.690Z,24.40
2018-06-02T13:49:43.924Z,23.90
2018-06-02T13:52:10.159Z,23.70
2018-06-02T13:54:36.384Z,23.60
2018-06-02T13:57:02.640Z,23.80
2018-06-02T13:59:28.903Z,23.70
2018-06-02T14:01:55.878Z,23.10
2018-06-02T14:04:22.093Z,23.10
2018-06-02T14:06:48.355Z,23.10
2018-06-02T14:09:14.584Z,23.10
2018-06-02T14:11:40.869Z,23.20
2018-06-02T14:14:07.848Z,23.10
2018-06-02T14:16:34.057Z,23.00
2018-06-02T14:19:00.281Z,23.00
2018-06-02T14:21:26.490Z,22.90
2018-06-02T14:23:53.441Z,22.50
2018-06-02T14:26:20.429Z,22.30
2018-06-02T14:28:46.662Z,22.30
2018-06-02T14:31:12.881Z,22.10
2018-06-02T14:33:39.078Z,21.80
2018-06-02T14:36:05.332Z,21.50
2018-06-02T14:38:31.526Z,21.40
2018-06-02T14:40:58.532Z,21.20
2018-06-02T14:43:24.726Z,21.20
2018-06-02T14:45:50.942Z,21.20
2018-06-02T14:48:17.322Z,21.10
2018-06-02T14:50:43.506Z,21.10
2018-06-02T14:53:09.759Z,21.10
2018-06-02T14:55:36.014Z,21.20
2018-06-02T14:58:03.288Z,21.30
2018-06-02T15:00:30.247Z,21.60
2018-06-02T15:02:56.545Z,21.60
2018-06-02T15:05:22.739Z,21.70
2018-06-02T15:07:48.999Z,21.80
2018-06-02T15:10:15.207Z,21.80
2018-06-02T15:12:42.162Z,22.00
2018-06-02T15:15:08.412Z,21.90
2018-06-02T15:17:35.354Z,22.00
2018-06-02T15:20:02.500Z,22.10
2018-06-02T15:22:29.457Z,22.10
2018-06-02T15:24:56.398Z,22.20
2018-06-02T15:27:23.361Z,22.20
2018-06-02T15:29:53.223Z,22.20
2018-06-02T15:32:19.463Z,22.20
2018-06-02T15:34:45.659Z,22.40
2018-06-02T15:37:11.884Z,22.50
2018-06-02T15:39:38.113Z,22.80
2018-06-02T15:42:04.359Z,22.90
2018-06-02T15:44:30.821Z,23.00
2018-06-02T15:46:57.783Z,23.20
2018-06-02T15:49:24.005Z,23.20
2018-06-02T15:51:50.946Z,23.20
2018-06-02T15:54:17.897Z,23.30
2018-06-02T15:56:44.854Z,23.40
2018-06-02T15:59:11.175Z,23.40
2018-06-02T16:01:37.416Z,23.50
2018-06-02T16:04:03.651Z,23.70
2018-06-02T16:06:29.881Z,23.70
2018-06-02T16:08:56.091Z,23.50
2018-06-02T16:11:22.313Z,23.30
2018-06-02T16:13:49.268Z,23.10
2018-06-02T16:16:15.486Z,23.10
2018-06-02T16:18:41.710Z,23.00
2018-06-02T16:21:07.948Z,22.90
2018-06-02T16:23:34.235Z,22.80
2018-06-02T16:26:00.475Z,22.60
2018-06-02T16:28:27.489Z,22.50
2018-06-02T16:30:53.703Z,22.50
2018-06-02T16:33:19.935Z,22.50
2018-06-02T16:35:46.126Z,22.40
2018-06-02T16:38:12.373Z,22.20
2018-06-02T16:40:38.605Z,22.20
2018-06-02T16:43:43.417Z,22.20
2018-06-02T16:46:10.975Z,22.00
2018-06-02T16:48:38.575Z,22.00
2018-06-02T16:51:06.226Z,21.90
2018-06-02T16:53:33.818Z,21.90
2018-06-02T16:56:01.613Z,21.90
2018-06-02T16:58:29.293Z,21.90
2018-06-02T17:00:56.848Z,21.90
2018-06-02T17:03:24.578Z,21.90
2018-06-02T17:05:52.157Z,22.00
2018-06-02T17:08:19.750Z,22.00
2018-06-02T17:10:47.306Z,22.00
2018-06-02T17:13:14.914Z,21.90
2018-06-02T17:15:42.462Z,21.90
2018-06-02T17:18:10.059Z,21.80
2018-06-02T17:20:37.648Z,21.60
2018-06-02T17:23:05.354Z,21.60
2018-06-02T17:25:32.934Z,21.50
2018-06-02T17:28:00.594Z,21.50
2018-06-02T17:30:28.202Z,21.50
2018-06-02T17:32:55.797Z,21.50
2018-06-02T17:35:23.489Z,21.40
2018-06-02T17:37:51.050Z,21.40
2018-06-02T17:40:18.670Z,21.40
2018-06-02T17:42:46.229Z,21.40
2018-06-02T17:45:13.775Z,21.50
2018-06-02T17:47:41.353Z,21.50
2018-06-02T17:50:08.914Z,21.60
2018-06-02T17:52:36.497Z,21.60
2018-06-02T17:55:04.070Z,21.60
2018-06-02T17:57:31.719Z,21.60
2018-06-02T17:59:59.333Z,21.60
2018-06-02T18:02:26.922Z,21.60
2018-06-02T18:04:54.558Z,21.50
2018-06-02T18:07:22.157Z,21.40
2018-06-02T18:09:49.780Z,21.30
2018-06-02T18:12:17.354Z,21.20
2018-06-02T18:14:44.970Z,21.10
2018-06-02T18:17:12.537Z,20.90
2018-06-02T18:19:40.146Z,20.80
2018-06-02T18:22:07.805Z,20.70
2018-06-02T18:24:35.415Z,20.60
2018-06-02T18:27:02.977Z,20.50
2018-06-02T18:29:30.616Z,20.50
2018-06-02T18:31:58.223Z,20.40
2018-06-02T18:34:25.803Z,20.30
2018-06-02T18:36:53.431Z,20.30
2018-06-02T18:39:21.010Z,20.30
2018-06-02T18:41:48.590Z,20.30
2018-06-02T18:44:16.165Z,20.20
2018-06-02T18:46:43.786Z,20.20
2018-06-02T18:49:11.474Z,20.20
2018-06-02T18:51:39.092Z,20.20
2018-06-02T18:54:06.739Z,20.20
2018-06-02T18:56:34.299Z,20.20
2018-06-02T18:59:01.910Z,20.20
2018-06-02T19:01:29.474Z,20.20
2018-06-02T19:03:57.052Z,20.20
2018-06-02T19:06:24.640Z,20.20
2018-06-02T19:08:52.217Z,20.10
2018-06-02T19:11:19.782Z,20.10
2018-06-02T19:13:47.419Z,20.00
2018-06-02T19:16:15.001Z,20.00
2018-06-02T19:18:42.614Z,20.00
2018-06-02T19:21:10.176Z,20.00
2018-06-02T19:23:37.802Z,19.90
2018-06-02T19:26:05.493Z,19.90
2018-06-02T19:28:33.075Z,20.00
2018-06-02T19:31:00.677Z,20.00
2018-06-02T19:33:28.298Z,19.90
2018-06-02T19:35:55.862Z,19.90
2018-06-02T19:38:23.443Z,19.90
2018-06-02T19:43:18.644Z,19.90
2018-06-02T19:45:46.209Z,19.80
2018-06-02T19:48:13.947Z,19.80
2018-06-02T19:50:41.483Z,19.80
2018-06-02T19:53:09.113Z,19.80
2018-06-02T19:55:36.684Z,19.80
2018-06-02T19:58:04.301Z,19.80
2018-06-02T20:00:31.915Z,19.80
2018-06-02T20:02:59.517Z,19.80
2018-06-02T20:05:27.190Z,19.80
2018-06-02T20:07:54.796Z,19.80
2018-06-02T20:10:22.369Z,19.80
2018-06-02T20:12:49.991Z,19.80
2018-06-02T20:15:17.639Z,19.80
2018-06-02T20:17:45.220Z,19.70
2018-06-02T20:20:19.622Z,19.70
2018-06-02T20:22:47.270Z,19.70
2018-06-02T20:25:14.885Z,19.70
2018-06-02T20:27:42.494Z,19.60
2018-06-02T20:30:10.194Z,19.60
2018-06-02T20:32:37.809Z,19.50
2018-06-02T20:35:05.399Z,19.50
2018-06-02T20:37:33.031Z,19.50
2018-06-02T20:40:00.594Z,19.40
2018-06-02T20:42:28.277Z,19.40
2018-06-02T20:44:55.798Z,19.40
2018-06-02T20:47:23.390Z,19.40
2018-06-02T20:49:51.015Z,19.30
2018-06-02T20:52:18.644Z,19.30
2018-06-02T20:54:46.267Z,19.20
2018-06-02T20:57:13.950Z,19.20
2018-06-02T20:59:41.566Z,19.10
2018-06-02T21:02:09.175Z,19.10
2018-06-02T21:04:36.798Z,19.00
2018-06-02T21:07:04.459Z,19.00
2018-06-02T21:09:32.030Z,19.00
2018-06-02T21:11:59.646Z,19.00
2018-06-02T21:14:27.256Z,19.00
2018-06-02T21:19:22.407Z,18.90
2018-06-02T21:21:50.090Z,18.90
2018-06-02T21:24:17.672Z,18.80
2018-06-02T21:26:45.261Z,18.70
2018-06-02T21:29:12.849Z,18.60
2018-06-02T21:31:40.427Z,18.60
2018-06-02T21:34:08.022Z,18.50
2018-06-02T21:36:35.594Z,18.50
2018-06-02T21:39:04.671Z,18.40
2018-06-02T21:41:32.302Z,18.40
2018-06-02T21:43:59.865Z,18.40
2018-06-02T21:46:27.438Z,18.40
2018-06-02T21:48:55.030Z,18.40
2018-06-02T21:51:22.867Z,18.40
2018-06-02T21:53:50.438Z,18.50
2018-06-02T21:56:18.034Z,18.50
2018-06-02T21:58:45.721Z,18.50
2018-06-02T22:01:13.446Z,18.60
2018-06-02T22:03:41.057Z,18.60
2018-06-02T22:06:08.703Z,18.60
2018-06-02T22:08:36.463Z,18.70
2018-06-02T22:11:04.046Z,18.70
2018-06-02T22:13:31.823Z,18.70
2018-06-02T22:15:59.422Z,18.60
2018-06-02T22:18:27.055Z,18.60
2018-06-02T22:20:54.645Z,18.60
2018-06-02T22:23:22.217Z,18.60
2018-06-02T22:25:49.806Z,18.50
2018-06-02T22:28:17.447Z,18.50
2018-06-02T22:30:45.042Z,18.50
2018-06-02T22:33:12.738Z,18.50
2018-06-02T22:35:40.375Z,18.50
2018-06-02T22:38:08.007Z,18.40
2018-06-02T22:40:35.618Z,18.40
2018-06-02T22:43:03.275Z,18.40
2018-06-02T22:45:30.938Z,18.40
2018-06-02T22:47:58.572Z,18.40
2018-06-02T22:50:26.196Z,18.40
2018-06-02T22:52:53.967Z,18.40
2018-06-02T22:55:21.696Z,18.40
2018-06-02T22:57:49.464Z,18.40
2018-06-02T23:00:18.395Z,18.40
2018-06-02T23:02:48.006Z,18.40
2018-06-02T23:05:15.774Z,18.40
2018-06-02T23:07:43.469Z,18.30
2018-06-02T23:10:11.099Z,18.30
2018-06-02T23:12:38.654Z,18.30
2018-06-02T23:15:06.294Z,18.30
2018-06-02T23:17:33.937Z,18.20
2018-06-02T23:20:01.527Z,18.10
2018-06-02T23:22:38.969Z,18.10
2018-06-02T23:25:06.682Z,18.00
2018-06-02T23:27:34.378Z,18.00
2018-06-02T23:30:02.046Z,18.00
2018-06-02T23:32:29.636Z,17.90
2018-06-02T23:34:57.194Z,17.90
2018-06-02T23:37:24.753Z,17.80
2018-06-02T23:39:52.311Z,17.80
2018-06-02T23:42:20.026Z,17.80
2018-06-02T23:44:47.644Z,17.80
2018-06-02T23:47:15.202Z,17.70
2018-06-02T23:49:42.861Z,17.60
2018-06-02T23:52:10.438Z,17.60
2018-06-02T23:54:38.050Z,17.60
2018-06-02T23:57:05.647Z,17.50
2018-06-02T23:59:33.300Z,17.40
